sensor_id;sensor_type;location;lat;lon;timestamp;temperature;humidity
15617;DHT22;7908;51.688;7.130;2023-04-15T00:01:43;6.00;99.90
15617;DHT22;7908;51.688;7.130;2023-04-15T00:04:16;5.90;99.90
15617;DHT22;7908;51.688;7.130;2023-04-15T00:06:53;5.90;99.90
15617;DHT22;7908;51.688;7.130;2023-04-15T00:09:24;5.90;99.90
15617;DHT22;7908;51.688;7.130;2023-04-15T00:11:53;5.90;99.90
15617;DHT22;7908;51.688;7.130;2023-04-15T00:14:26;5.90;99.90
15617;DHT22;7908;51.688;7.130;2023-04-15T00:16:56;5.90;99.90
15617;DHT22;7908;51.688;7.130;2023-04-15T00:19:25;5.90;99.90
15617;DHT22;7908;51.688;7.130;2023-04-15T00:21:55;5.90;99.90
15617;DHT22;7908;51.688;7.130;2023-04-15T00:24:28;5.80;99.90
15617;DHT22;7908;51.688;7.130;2023-04-15T00:27:03;5.80;99.90
15617;DHT22;7908;51.688;7.130;2023-04-15T00:29:33;5.70;99.90
15617;DHT22;7908;51.688;7.130;2023-04-15T00:32:02;5.70;99.90
15617;DHT22;7908;51.688;7.130;2023-04-15T00:34:33;5.70;99.90
15617;DHT22;7908;51.688;7.130;2023-04-15T00:37:04;5.70;99.90
15617;DHT22;7908;51.688;7.130;2023-04-15T00:39:36;5.60;99.90
15617;DHT22;7908;51.688;7.130;2023-04-15T00:42:12;5.60;99.90
15617;DHT22;7908;51.688;7.130;2023-04-15T00:44:41;5.60;99.90
15617;DHT22;7908;51.688;7.130;2023-04-15T00:47:11;5.50;99.90
15617;DHT22;7908;51.688;7.130;2023-04-15T00:49:41;5.50;99.90
15617;DHT22;7908;51.688;7.130;2023-04-15T00:52:18;5.50;99.90
15617;DHT22;7908;51.688;7.130;2023-04-15T00:54:49;5.40;99.90
15617;DHT22;7908;51.688;7.130;2023-04-15T00:57:20;5.40;99.90
15617;DHT22;7908;51.688;7.130;2023-04-15T00:59:51;5.40;99.90
15617;DHT22;7908;51.688;7.130;2023-04-15T01:02:23;5.30;99.90
15617;DHT22;7908;51.688;7.130;2023-04-15T01:04:52;5.30;99.90
15617;DHT22;7908;51.688;7.130;2023-04-15T01:07:23;5.30;99.90
15617;DHT22;7908;51.688;7.130;2023-04-15T01:09:52;5.30;99.90
15617;DHT22;7908;51.688;7.130;2023-04-15T01:12:23;5.30;99.90
15617;DHT22;7908;51.688;7.130;2023-04-15T01:14:55;5.20;99.90
15617;DHT22;7908;51.688;7.130;2023-04-15T01:17:24;5.20;99.90
15617;DHT22;7908;51.688;7.130;2023-04-15T01:19:55;5.20;99.90
15617;DHT22;7908;51.688;7.130;2023-04-15T01:22:27;5.20;99.90
15617;DHT22;7908;51.688;7.130;2023-04-15T01:25:00;5.20;99.90
15617;DHT22;7908;51.688;7.130;2023-04-15T01:27:35;5.20;99.90
15617;DHT22;7908;51.688;7.130;2023-04-15T01:30:10;5.20;99.90
15617;DHT22;7908;51.688;7.130;2023-04-15T01:32:40;5.20;99.90
15617;DHT22;7908;51.688;7.130;2023-04-15T01:35:09;5.10;99.90
15617;DHT22;7908;51.688;7.130;2023-04-15T01:37:41;5.10;99.90
15617;DHT22;7908;51.688;7.130;2023-04-15T01:40:10;5.10;99.90
15617;DHT22;7908;51.688;7.130;2023-04-15T01:42:41;5.10;99.90
15617;DHT22;7908;51.688;7.130;2023-04-15T01:45:11;5.00;99.90
15617;DHT22;7908;51.688;7.130;2023-04-15T01:47:40;4.90;99.90
15617;DHT22;7908;51.688;7.130;2023-04-15T01:50:09;4.80;99.90
15617;DHT22;7908;51.688;7.130;2023-04-15T01:52:38;4.80;99.90
15617;DHT22;7908;51.688;7.130;2023-04-15T01:55:08;4.80;99.90
15617;DHT22;7908;51.688;7.130;2023-04-15T01:57:37;4.70;99.90
15617;DHT22;7908;51.688;7.130;2023-04-15T02:00:09;4.70;99.90
15617;DHT22;7908;51.688;7.130;2023-04-15T02:02:38;4.70;99.90
15617;DHT22;7908;51.688;7.130;2023-04-15T02:05:07;4.70;99.90
15617;DHT22;7908;51.688;7.130;2023-04-15T02:07:38;4.70;99.90
15617;DHT22;7908;51.688;7.130;2023-04-15T02:10:07;4.70;99.90
15617;DHT22;7908;51.688;7.130;2023-04-15T02:12:37;4.70;99.90
15617;DHT22;7908;51.688;7.130;2023-04-15T02:15:09;4.70;99.90
15617;DHT22;7908;51.688;7.130;2023-04-15T02:17:42;4.60;99.90
15617;DHT22;7908;51.688;7.130;2023-04-15T02:20:12;4.60;99.90
15617;DHT22;7908;51.688;7.130;2023-04-15T02:22:41;4.60;99.90
15617;DHT22;7908;51.688;7.130;2023-04-15T02:25:09;4.60;99.90
15617;DHT22;7908;51.688;7.130;2023-04-15T02:27:42;4.60;99.90
15617;DHT22;7908;51.688;7.130;2023-04-15T02:30:12;4.60;99.90
15617;DHT22;7908;51.688;7.130;2023-04-15T02:32:40;4.60;99.90
15617;DHT22;7908;51.688;7.130;2023-04-15T02:35:11;4.50;99.90
15617;DHT22;7908;51.688;7.130;2023-04-15T02:37:40;4.50;99.90
15617;DHT22;7908;51.688;7.130;2023-04-15T02:40:15;4.40;99.90
15617;DHT22;7908;51.688;7.130;2023-04-15T02:42:43;4.40;99.90
15617;DHT22;7908;51.688;7.130;2023-04-15T02:45:14;4.30;99.90
15617;DHT22;7908;51.688;7.130;2023-04-15T02:47:44;4.30;99.90
15617;DHT22;7908;51.688;7.130;2023-04-15T02:50:13;4.30;99.90
15617;DHT22;7908;51.688;7.130;2023-04-15T02:52:43;4.30;99.90
15617;DHT22;7908;51.688;7.130;2023-04-15T02:55:12;4.20;99.90
15617;DHT22;7908;51.688;7.130;2023-04-15T02:57:41;4.20;99.90
15617;DHT22;7908;51.688;7.130;2023-04-15T03:00:10;4.20;99.90
15617;DHT22;7908;51.688;7.130;2023-04-15T03:02:41;4.20;99.90
15617;DHT22;7908;51.688;7.130;2023-04-15T03:05:11;4.20;99.90
15617;DHT22;7908;51.688;7.130;2023-04-15T03:07:40;4.20;99.90
15617;DHT22;7908;51.688;7.130;2023-04-15T03:10:12;4.20;99.90
15617;DHT22;7908;51.688;7.130;2023-04-15T03:12:42;4.20;99.90
15617;DHT22;7908;51.688;7.130;2023-04-15T03:15:11;4.10;99.90
15617;DHT22;7908;51.688;7.130;2023-04-15T03:17:41;4.10;99.90
15617;DHT22;7908;51.688;7.130;2023-04-15T03:20:10;4.10;99.90
15617;DHT22;7908;51.688;7.130;2023-04-15T03:22:39;4.10;99.90
15617;DHT22;7908;51.688;7.130;2023-04-15T03:25:08;4.00;99.90
15617;DHT22;7908;51.688;7.130;2023-04-15T03:27:38;4.00;99.90
15617;DHT22;7908;51.688;7.130;2023-04-15T03:30:08;4.00;99.90
15617;DHT22;7908;51.688;7.130;2023-04-15T03:32:38;4.00;99.90
15617;DHT22;7908;51.688;7.130;2023-04-15T03:35:08;4.00;99.90
15617;DHT22;7908;51.688;7.130;2023-04-15T03:37:38;4.00;99.90
15617;DHT22;7908;51.688;7.130;2023-04-15T03:40:08;4.00;99.90
15617;DHT22;7908;51.688;7.130;2023-04-15T03:42:37;4.00;99.90
15617;DHT22;7908;51.688;7.130;2023-04-15T03:45:06;3.90;99.90
15617;DHT22;7908;51.688;7.130;2023-04-15T03:47:35;3.90;99.90
15617;DHT22;7908;51.688;7.130;2023-04-15T03:50:05;3.90;99.90
15617;DHT22;7908;51.688;7.130;2023-04-15T03:52:36;3.90;99.90
15617;DHT22;7908;51.688;7.130;2023-04-15T03:55:05;3.90;99.90
15617;DHT22;7908;51.688;7.130;2023-04-15T03:57:34;3.90;99.90
15617;DHT22;7908;51.688;7.130;2023-04-15T04:00:07;3.90;99.90
15617;DHT22;7908;51.688;7.130;2023-04-15T04:02:37;3.90;99.90
15617;DHT22;7908;51.688;7.130;2023-04-15T04:05:06;3.90;99.90
15617;DHT22;7908;51.688;7.130;2023-04-15T04:07:37;3.90;99.90
15617;DHT22;7908;51.688;7.130;2023-04-15T04:10:06;3.80;99.90
15617;DHT22;7908;51.688;7.130;2023-04-15T04:12:35;3.80;99.90
15617;DHT22;7908;51.688;7.130;2023-04-15T04:15:07;3.80;99.90
15617;DHT22;7908;51.688;7.130;2023-04-15T04:17:36;3.80;99.90
15617;DHT22;7908;51.688;7.130;2023-04-15T04:20:05;3.80;99.90
15617;DHT22;7908;51.688;7.130;2023-04-15T04:22:38;3.80;99.90
15617;DHT22;7908;51.688;7.130;2023-04-15T04:25:08;3.80;99.90
15617;DHT22;7908;51.688;7.130;2023-04-15T04:27:37;3.70;99.90
15617;DHT22;7908;51.688;7.130;2023-04-15T04:30:07;3.70;99.90
15617;DHT22;7908;51.688;7.130;2023-04-15T04:32:36;3.70;99.90
15617;DHT22;7908;51.688;7.130;2023-04-15T04:35:05;3.60;99.90
15617;DHT22;7908;51.688;7.130;2023-04-15T04:37:33;3.60;99.90
15617;DHT22;7908;51.688;7.130;2023-04-15T04:40:05;3.60;99.90
15617;DHT22;7908;51.688;7.130;2023-04-15T04:42:34;3.50;99.90
15617;DHT22;7908;51.688;7.130;2023-04-15T04:45:06;3.50;99.90
15617;DHT22;7908;51.688;7.130;2023-04-15T04:47:35;3.50;99.90
15617;DHT22;7908;51.688;7.130;2023-04-15T04:50:04;3.40;99.90
15617;DHT22;7908;51.688;7.130;2023-04-15T04:52:33;3.40;99.90
15617;DHT22;7908;51.688;7.130;2023-04-15T04:55:01;3.40;99.90
15617;DHT22;7908;51.688;7.130;2023-04-15T04:57:32;3.40;99.90
15617;DHT22;7908;51.688;7.130;2023-04-15T05:00:02;3.40;99.90
15617;DHT22;7908;51.688;7.130;2023-04-15T05:02:31;3.40;99.90
15617;DHT22;7908;51.688;7.130;2023-04-15T05:05:00;3.50;99.90
15617;DHT22;7908;51.688;7.130;2023-04-15T05:07:29;3.40;99.90
15617;DHT22;7908;51.688;7.130;2023-04-15T05:09:57;3.50;99.90
15617;DHT22;7908;51.688;7.130;2023-04-15T05:12:26;3.50;99.90
15617;DHT22;7908;51.688;7.130;2023-04-15T05:14:56;3.50;99.90
15617;DHT22;7908;51.688;7.130;2023-04-15T05:17:24;3.50;99.90
15617;DHT22;7908;51.688;7.130;2023-04-15T05:19:56;3.60;99.90
15617;DHT22;7908;51.688;7.130;2023-04-15T05:22:24;3.60;99.90
15617;DHT22;7908;51.688;7.130;2023-04-15T05:24:53;3.60;99.90
15617;DHT22;7908;51.688;7.130;2023-04-15T05:27:21;3.70;99.90
15617;DHT22;7908;51.688;7.130;2023-04-15T05:29:51;3.70;99.90
15617;DHT22;7908;51.688;7.130;2023-04-15T05:32:21;3.80;99.90
15617;DHT22;7908;51.688;7.130;2023-04-15T05:34:49;3.80;99.90
15617;DHT22;7908;51.688;7.130;2023-04-15T05:37:18;3.90;99.90
15617;DHT22;7908;51.688;7.130;2023-04-15T05:39:48;3.90;99.90
15617;DHT22;7908;51.688;7.130;2023-04-15T05:42:16;3.90;99.90
15617;DHT22;7908;51.688;7.130;2023-04-15T05:44:45;3.90;99.90
15617;DHT22;7908;51.688;7.130;2023-04-15T05:47:14;4.00;99.90
15617;DHT22;7908;51.688;7.130;2023-04-15T05:49:44;4.00;99.90
15617;DHT22;7908;51.688;7.130;2023-04-15T05:52:12;4.00;99.90
15617;DHT22;7908;51.688;7.130;2023-04-15T05:54:41;4.00;99.90
15617;DHT22;7908;51.688;7.130;2023-04-15T05:57:09;4.10;99.90
15617;DHT22;7908;51.688;7.130;2023-04-15T05:59:40;4.10;99.90
15617;DHT22;7908;51.688;7.130;2023-04-15T06:02:09;4.20;99.90
15617;DHT22;7908;51.688;7.130;2023-04-15T06:04:38;4.30;99.90
15617;DHT22;7908;51.688;7.130;2023-04-15T06:07:09;4.40;99.90
15617;DHT22;7908;51.688;7.130;2023-04-15T06:09:37;4.50;99.90
15617;DHT22;7908;51.688;7.130;2023-04-15T06:12:06;4.60;99.90
15617;DHT22;7908;51.688;7.130;2023-04-15T06:14:38;4.70;99.90
15617;DHT22;7908;51.688;7.130;2023-04-15T06:17:07;4.80;99.90
15617;DHT22;7908;51.688;7.130;2023-04-15T06:19:36;4.90;99.90
15617;DHT22;7908;51.688;7.130;2023-04-15T06:22:05;5.10;99.90
15617;DHT22;7908;51.688;7.130;2023-04-15T06:24:35;5.20;99.90
15617;DHT22;7908;51.688;7.130;2023-04-15T06:27:04;5.30;99.90
15617;DHT22;7908;51.688;7.130;2023-04-15T06:29:33;5.50;99.90
15617;DHT22;7908;51.688;7.130;2023-04-15T06:32:01;5.60;99.90
15617;DHT22;7908;51.688;7.130;2023-04-15T06:34:30;5.80;99.90
15617;DHT22;7908;51.688;7.130;2023-04-15T06:36:58;5.90;99.90
15617;DHT22;7908;51.688;7.130;2023-04-15T06:39:27;6.10;99.90
15617;DHT22;7908;51.688;7.130;2023-04-15T06:42:00;6.40;99.90
15617;DHT22;7908;51.688;7.130;2023-04-15T06:44:29;6.60;99.90
15617;DHT22;7908;51.688;7.130;2023-04-15T06:46:59;6.70;99.90
15617;DHT22;7908;51.688;7.130;2023-04-15T06:49:28;6.80;99.90
15617;DHT22;7908;51.688;7.130;2023-04-15T06:51:57;7.00;99.90
15617;DHT22;7908;51.688;7.130;2023-04-15T06:54:27;7.10;99.90
15617;DHT22;7908;51.688;7.130;2023-04-15T06:56:57;7.20;99.90
15617;DHT22;7908;51.688;7.130;2023-04-15T06:59:26;7.30;99.90
15617;DHT22;7908;51.688;7.130;2023-04-15T07:01:55;7.40;99.90
15617;DHT22;7908;51.688;7.130;2023-04-15T07:04:23;7.50;99.90
15617;DHT22;7908;51.688;7.130;2023-04-15T07:06:52;7.50;99.90
15617;DHT22;7908;51.688;7.130;2023-04-15T07:09:21;7.60;99.90
15617;DHT22;7908;51.688;7.130;2023-04-15T07:11:50;7.60;99.90
15617;DHT22;7908;51.688;7.130;2023-04-15T07:14:21;7.70;99.90
15617;DHT22;7908;51.688;7.130;2023-04-15T07:16:54;7.80;99.90
15617;DHT22;7908;51.688;7.130;2023-04-15T07:19:23;7.80;99.90
15617;DHT22;7908;51.688;7.130;2023-04-15T07:21:52;7.90;99.90
15617;DHT22;7908;51.688;7.130;2023-04-15T07:24:21;8.00;99.90
15617;DHT22;7908;51.688;7.130;2023-04-15T07:26:53;8.10;99.90
15617;DHT22;7908;51.688;7.130;2023-04-15T07:29:25;8.20;99.90
15617;DHT22;7908;51.688;7.130;2023-04-15T07:31:57;8.30;99.90
15617;DHT22;7908;51.688;7.130;2023-04-15T07:34:26;8.40;99.90
15617;DHT22;7908;51.688;7.130;2023-04-15T07:36:57;8.50;99.90
15617;DHT22;7908;51.688;7.130;2023-04-15T07:39:26;8.50;99.90
15617;DHT22;7908;51.688;7.130;2023-04-15T07:41:55;8.60;99.90
15617;DHT22;7908;51.688;7.130;2023-04-15T07:44:27;8.70;99.90
15617;DHT22;7908;51.688;7.130;2023-04-15T07:46:55;8.80;99.90
15617;DHT22;7908;51.688;7.130;2023-04-15T07:49:24;8.90;99.90
15617;DHT22;7908;51.688;7.130;2023-04-15T07:51:53;8.90;99.90
15617;DHT22;7908;51.688;7.130;2023-04-15T07:54:24;9.00;99.90
15617;DHT22;7908;51.688;7.130;2023-04-15T07:56:52;9.10;99.90
15617;DHT22;7908;51.688;7.130;2023-04-15T07:59:25;9.20;99.90
15617;DHT22;7908;51.688;7.130;2023-04-15T08:01:56;9.30;99.90
15617;DHT22;7908;51.688;7.130;2023-04-15T08:04:25;9.30;99.90
15617;DHT22;7908;51.688;7.130;2023-04-15T08:06:55;9.50;99.90
15617;DHT22;7908;51.688;7.130;2023-04-15T08:09:24;9.50;99.90
15617;DHT22;7908;51.688;7.130;2023-04-15T08:11:53;9.60;99.90
15617;DHT22;7908;51.688;7.130;2023-04-15T08:14:23;9.70;99.90
15617;DHT22;7908;51.688;7.130;2023-04-15T08:16:53;9.70;99.90
15617;DHT22;7908;51.688;7.130;2023-04-15T08:19:25;9.80;99.90
15617;DHT22;7908;51.688;7.130;2023-04-15T08:21:54;9.80;99.90
15617;DHT22;7908;51.688;7.130;2023-04-15T08:24:27;9.80;99.90
15617;DHT22;7908;51.688;7.130;2023-04-15T08:26:56;9.80;99.90
15617;DHT22;7908;51.688;7.130;2023-04-15T08:29:27;9.90;99.90
15617;DHT22;7908;51.688;7.130;2023-04-15T08:32:01;9.90;99.90
15617;DHT22;7908;51.688;7.130;2023-04-15T08:34:31;10.20;99.90
15617;DHT22;7908;51.688;7.130;2023-04-15T08:37:04;10.30;99.90
15617;DHT22;7908;51.688;7.130;2023-04-15T08:39:33;10.40;99.90
15617;DHT22;7908;51.688;7.130;2023-04-15T08:42:03;10.40;99.90
15617;DHT22;7908;51.688;7.130;2023-04-15T08:44:34;10.40;99.90
15617;DHT22;7908;51.688;7.130;2023-04-15T08:47:07;10.30;99.90
15617;DHT22;7908;51.688;7.130;2023-04-15T08:49:39;10.20;99.90
15617;DHT22;7908;51.688;7.130;2023-04-15T08:52:08;10.10;99.90
15617;DHT22;7908;51.688;7.130;2023-04-15T08:54:38;10.10;99.90
15617;DHT22;7908;51.688;7.130;2023-04-15T08:57:08;10.10;99.90
15617;DHT22;7908;51.688;7.130;2023-04-15T08:59:37;10.20;99.90
15617;DHT22;7908;51.688;7.130;2023-04-15T09:02:08;10.30;99.90
15617;DHT22;7908;51.688;7.130;2023-04-15T09:04:42;10.40;99.90
15617;DHT22;7908;51.688;7.130;2023-04-15T09:07:23;10.60;99.90
15617;DHT22;7908;51.688;7.130;2023-04-15T09:09:53;10.70;99.90
15617;DHT22;7908;51.688;7.130;2023-04-15T09:12:23;10.70;99.90
15617;DHT22;7908;51.688;7.130;2023-04-15T09:14:52;10.70;99.90
15617;DHT22;7908;51.688;7.130;2023-04-15T09:17:23;10.70;99.90
15617;DHT22;7908;51.688;7.130;2023-04-15T09:20:07;10.80;99.90
15617;DHT22;7908;51.688;7.130;2023-04-15T09:22:46;10.90;99.90
15617;DHT22;7908;51.688;7.130;2023-04-15T09:25:39;11.00;99.90
15617;DHT22;7908;51.688;7.130;2023-04-15T09:28:11;10.90;99.90
15617;DHT22;7908;51.688;7.130;2023-04-15T09:30:43;11.00;99.90
15617;DHT22;7908;51.688;7.130;2023-04-15T09:33:18;11.10;99.90
15617;DHT22;7908;51.688;7.130;2023-04-15T09:35:59;11.00;99.90
15617;DHT22;7908;51.688;7.130;2023-04-15T09:38:29;10.90;99.90
15617;DHT22;7908;51.688;7.130;2023-04-15T09:41:01;10.80;99.90
15617;DHT22;7908;51.688;7.130;2023-04-15T09:43:39;10.70;99.90
15617;DHT22;7908;51.688;7.130;2023-04-15T09:46:16;10.60;99.90
15617;DHT22;7908;51.688;7.130;2023-04-15T09:49:06;10.60;99.90
15617;DHT22;7908;51.688;7.130;2023-04-15T09:51:44;10.40;99.90
15617;DHT22;7908;51.688;7.130;2023-04-15T09:54:36;10.30;99.90
15617;DHT22;7908;51.688;7.130;2023-04-15T09:57:08;10.30;99.90
15617;DHT22;7908;51.688;7.130;2023-04-15T09:59:48;10.30;99.90
15617;DHT22;7908;51.688;7.130;2023-04-15T10:02:24;10.40;99.90
15617;DHT22;7908;51.688;7.130;2023-04-15T10:05:11;10.60;99.90
15617;DHT22;7908;51.688;7.130;2023-04-15T10:07:49;10.80;99.90
15617;DHT22;7908;51.688;7.130;2023-04-15T10:10:24;10.90;99.90
15617;DHT22;7908;51.688;7.130;2023-04-15T10:12:54;11.00;99.90
15617;DHT22;7908;51.688;7.130;2023-04-15T10:15:26;10.90;99.90
15617;DHT22;7908;51.688;7.130;2023-04-15T10:17:57;11.00;99.90
15617;DHT22;7908;51.688;7.130;2023-04-15T10:20:39;11.10;99.90
15617;DHT22;7908;51.688;7.130;2023-04-15T10:23:11;11.10;99.90
15617;DHT22;7908;51.688;7.130;2023-04-15T10:25:45;11.10;99.90
15617;DHT22;7908;51.688;7.130;2023-04-15T10:28:40;11.20;99.90
15617;DHT22;7908;51.688;7.130;2023-04-15T10:31:17;11.10;99.90
15617;DHT22;7908;51.688;7.130;2023-04-15T10:33:53;11.00;99.90
15617;DHT22;7908;51.688;7.130;2023-04-15T10:36:38;10.90;99.90
15617;DHT22;7908;51.688;7.130;2023-04-15T10:39:39;10.90;99.90
15617;DHT22;7908;51.688;7.130;2023-04-15T10:42:11;10.80;99.90
15617;DHT22;7908;51.688;7.130;2023-04-15T10:44:43;10.80;99.90
15617;DHT22;7908;51.688;7.130;2023-04-15T10:47:17;10.70;99.90
15617;DHT22;7908;51.688;7.130;2023-04-15T10:49:59;10.70;99.90
15617;DHT22;7908;51.688;7.130;2023-04-15T10:52:33;10.70;99.90
15617;DHT22;7908;51.688;7.130;2023-04-15T10:55:17;10.70;99.90
15617;DHT22;7908;51.688;7.130;2023-04-15T10:57:58;10.70;99.90
15617;DHT22;7908;51.688;7.130;2023-04-15T11:00:37;10.70;99.90
15617;DHT22;7908;51.688;7.130;2023-04-15T11:03:11;10.70;99.90
15617;DHT22;7908;51.688;7.130;2023-04-15T11:05:54;10.80;99.90
15617;DHT22;7908;51.688;7.130;2023-04-15T11:08:57;10.70;99.90
15617;DHT22;7908;51.688;7.130;2023-04-15T11:12:06;10.70;99.90
15617;DHT22;7908;51.688;7.130;2023-04-15T11:14:42;10.70;99.90
15617;DHT22;7908;51.688;7.130;2023-04-15T11:17:26;10.70;99.90
15617;DHT22;7908;51.688;7.130;2023-04-15T11:20:06;10.70;99.90
15617;DHT22;7908;51.688;7.130;2023-04-15T11:22:49;10.60;99.90
15617;DHT22;7908;51.688;7.130;2023-04-15T11:25:43;10.60;99.90
15617;DHT22;7908;51.688;7.130;2023-04-15T11:28:25;10.60;99.90
15617;DHT22;7908;51.688;7.130;2023-04-15T11:31:07;10.60;99.90
15617;DHT22;7908;51.688;7.130;2023-04-15T11:33:44;10.70;99.90
15617;DHT22;7908;51.688;7.130;2023-04-15T11:36:30;10.80;99.90
15617;DHT22;7908;51.688;7.130;2023-04-15T11:39:11;10.80;99.90
15617;DHT22;7908;51.688;7.130;2023-04-15T11:41:47;10.80;99.90
15617;DHT22;7908;51.688;7.130;2023-04-15T11:44:20;10.80;99.90
15617;DHT22;7908;51.688;7.130;2023-04-15T11:46:49;10.80;99.90
15617;DHT22;7908;51.688;7.130;2023-04-15T11:49:29;10.80;99.90
15617;DHT22;7908;51.688;7.130;2023-04-15T11:52:10;10.80;99.90
15617;DHT22;7908;51.688;7.130;2023-04-15T11:54:42;10.80;99.90
15617;DHT22;7908;51.688;7.130;2023-04-15T11:57:14;10.80;99.90
15617;DHT22;7908;51.688;7.130;2023-04-15T11:59:45;10.70;99.90
15617;DHT22;7908;51.688;7.130;2023-04-15T12:02:15;10.60;99.90
15617;DHT22;7908;51.688;7.130;2023-04-15T12:04:50;10.50;99.90
15617;DHT22;7908;51.688;7.130;2023-04-15T12:07:20;10.50;99.90
15617;DHT22;7908;51.688;7.130;2023-04-15T12:09:59;10.50;99.90
15617;DHT22;7908;51.688;7.130;2023-04-15T12:12:51;10.50;99.90
15617;DHT22;7908;51.688;7.130;2023-04-15T12:15:24;10.50;99.90
15617;DHT22;7908;51.688;7.130;2023-04-15T12:17:55;10.60;99.90
15617;DHT22;7908;51.688;7.130;2023-04-15T12:20:30;10.70;99.90
15617;DHT22;7908;51.688;7.130;2023-04-15T12:23:21;10.80;99.90
15617;DHT22;7908;51.688;7.130;2023-04-15T12:25:59;10.80;99.90
15617;DHT22;7908;51.688;7.130;2023-04-15T12:28:40;10.80;99.90
15617;DHT22;7908;51.688;7.130;2023-04-15T12:31:14;10.80;99.90
15617;DHT22;7908;51.688;7.130;2023-04-15T12:33:47;10.80;99.90
15617;DHT22;7908;51.688;7.130;2023-04-15T12:36:17;10.80;99.90
15617;DHT22;7908;51.688;7.130;2023-04-15T12:38:51;10.80;99.90
15617;DHT22;7908;51.688;7.130;2023-04-15T12:41:23;10.80;99.90
15617;DHT22;7908;51.688;7.130;2023-04-15T12:43:58;10.70;99.90
15617;DHT22;7908;51.688;7.130;2023-04-15T12:46:30;10.80;99.90
15617;DHT22;7908;51.688;7.130;2023-04-15T12:49:03;10.80;99.90
15617;DHT22;7908;51.688;7.130;2023-04-15T12:51:36;10.80;99.90
15617;DHT22;7908;51.688;7.130;2023-04-15T12:54:15;10.80;99.90
15617;DHT22;7908;51.688;7.130;2023-04-15T12:56:49;10.80;99.90
15617;DHT22;7908;51.688;7.130;2023-04-15T12:59:23;10.80;99.90
15617;DHT22;7908;51.688;7.130;2023-04-15T13:02:03;10.80;99.90
15617;DHT22;7908;51.688;7.130;2023-04-15T13:04:48;10.80;99.90
15617;DHT22;7908;51.688;7.130;2023-04-15T13:07:24;10.80;99.90
15617;DHT22;7908;51.688;7.130;2023-04-15T13:09:56;10.80;99.90
15617;DHT22;7908;51.688;7.130;2023-04-15T13:12:28;10.80;99.90
15617;DHT22;7908;51.688;7.130;2023-04-15T13:15:05;10.90;99.90
15617;DHT22;7908;51.688;7.130;2023-04-15T13:17:49;10.90;99.90
15617;DHT22;7908;51.688;7.130;2023-04-15T13:20:19;10.80;99.90
15617;DHT22;7908;51.688;7.130;2023-04-15T13:22:48;10.80;99.90
15617;DHT22;7908;51.688;7.130;2023-04-15T13:25:17;10.80;99.90
15617;DHT22;7908;51.688;7.130;2023-04-15T13:27:47;10.80;99.90
15617;DHT22;7908;51.688;7.130;2023-04-15T13:30:23;10.80;99.90
15617;DHT22;7908;51.688;7.130;2023-04-15T13:32:58;10.80;99.90
15617;DHT22;7908;51.688;7.130;2023-04-15T13:35:31;10.80;99.90
15617;DHT22;7908;51.688;7.130;2023-04-15T13:38:05;10.70;99.90
15617;DHT22;7908;51.688;7.130;2023-04-15T13:40:40;10.70;99.90
15617;DHT22;7908;51.688;7.130;2023-04-15T13:43:12;10.70;99.90
15617;DHT22;7908;51.688;7.130;2023-04-15T13:45:46;10.70;99.90
15617;DHT22;7908;51.688;7.130;2023-04-15T13:48:18;10.60;99.90
15617;DHT22;7908;51.688;7.130;2023-04-15T13:50:55;10.60;99.90
15617;DHT22;7908;51.688;7.130;2023-04-15T13:53:27;10.60;99.90
15617;DHT22;7908;51.688;7.130;2023-04-15T13:56:05;10.60;99.90
15617;DHT22;7908;51.688;7.130;2023-04-15T13:58:41;10.60;99.90
15617;DHT22;7908;51.688;7.130;2023-04-15T14:01:17;10.50;99.90
15617;DHT22;7908;51.688;7.130;2023-04-15T14:03:48;10.20;99.90
15617;DHT22;7908;51.688;7.130;2023-04-15T14:06:19;10.00;99.90
15617;DHT22;7908;51.688;7.130;2023-04-15T14:08:48;9.80;99.90
15617;DHT22;7908;51.688;7.130;2023-04-15T14:11:20;9.70;99.90
15617;DHT22;7908;51.688;7.130;2023-04-15T14:13:49;9.60;99.90
15617;DHT22;7908;51.688;7.130;2023-04-15T14:16:21;9.60;99.90
15617;DHT22;7908;51.688;7.130;2023-04-15T14:18:58;9.60;99.90
15617;DHT22;7908;51.688;7.130;2023-04-15T14:21:28;9.60;99.90
15617;DHT22;7908;51.688;7.130;2023-04-15T14:23:59;9.50;99.90
15617;DHT22;7908;51.688;7.130;2023-04-15T14:26:28;9.50;99.90
15617;DHT22;7908;51.688;7.130;2023-04-15T14:29:12;9.40;99.90
15617;DHT22;7908;51.688;7.130;2023-04-15T14:31:55;9.40;99.90
15617;DHT22;7908;51.688;7.130;2023-04-15T14:34:39;9.30;99.90
15617;DHT22;7908;51.688;7.130;2023-04-15T14:37:11;9.30;99.90
15617;DHT22;7908;51.688;7.130;2023-04-15T14:39:45;9.30;99.90
15617;DHT22;7908;51.688;7.130;2023-04-15T14:42:14;9.20;99.90
15617;DHT22;7908;51.688;7.130;2023-04-15T14:44:46;9.30;99.90
15617;DHT22;7908;51.688;7.130;2023-04-15T14:47:16;9.30;99.90
15617;DHT22;7908;51.688;7.130;2023-04-15T14:49:49;9.30;99.90
15617;DHT22;7908;51.688;7.130;2023-04-15T14:52:22;9.30;99.90
15617;DHT22;7908;51.688;7.130;2023-04-15T14:54:53;9.20;99.90
15617;DHT22;7908;51.688;7.130;2023-04-15T14:57:22;9.20;99.90
15617;DHT22;7908;51.688;7.130;2023-04-15T14:59:50;9.20;99.90
15617;DHT22;7908;51.688;7.130;2023-04-15T15:02:27;9.20;99.90
15617;DHT22;7908;51.688;7.130;2023-04-15T15:05:00;9.10;99.90
15617;DHT22;7908;51.688;7.130;2023-04-15T15:07:31;9.10;99.90
15617;DHT22;7908;51.688;7.130;2023-04-15T15:10:05;9.00;99.90
15617;DHT22;7908;51.688;7.130;2023-04-15T15:12:38;9.00;99.90
15617;DHT22;7908;51.688;7.130;2023-04-15T15:15:08;9.00;99.90
15617;DHT22;7908;51.688;7.130;2023-04-15T15:17:55;9.00;99.90
15617;DHT22;7908;51.688;7.130;2023-04-15T15:20:25;9.00;99.90
15617;DHT22;7908;51.688;7.130;2023-04-15T15:22:57;9.00;99.90
15617;DHT22;7908;51.688;7.130;2023-04-15T15:25:27;9.00;99.90
15617;DHT22;7908;51.688;7.130;2023-04-15T15:27:57;9.00;99.90
15617;DHT22;7908;51.688;7.130;2023-04-15T15:30:35;9.00;99.90
15617;DHT22;7908;51.688;7.130;2023-04-15T15:33:10;9.10;99.90
15617;DHT22;7908;51.688;7.130;2023-04-15T15:35:41;9.10;99.90
15617;DHT22;7908;51.688;7.130;2023-04-15T15:38:12;9.10;99.90
15617;DHT22;7908;51.688;7.130;2023-04-15T15:40:47;9.10;99.90
15617;DHT22;7908;51.688;7.130;2023-04-15T15:43:16;9.10;99.90
15617;DHT22;7908;51.688;7.130;2023-04-15T15:45:46;9.00;99.90
15617;DHT22;7908;51.688;7.130;2023-04-15T15:48:23;9.00;99.90
15617;DHT22;7908;51.688;7.130;2023-04-15T15:50:57;9.00;99.90
15617;DHT22;7908;51.688;7.130;2023-04-15T15:53:28;9.00;99.90
15617;DHT22;7908;51.688;7.130;2023-04-15T15:56:03;9.00;99.90
15617;DHT22;7908;51.688;7.130;2023-04-15T15:58:35;9.00;99.90
15617;DHT22;7908;51.688;7.130;2023-04-15T16:01:05;9.00;99.90
15617;DHT22;7908;51.688;7.130;2023-04-15T16:03:37;9.00;99.90
15617;DHT22;7908;51.688;7.130;2023-04-15T16:06:08;8.90;99.90
15617;DHT22;7908;51.688;7.130;2023-04-15T16:08:41;8.90;99.90
15617;DHT22;7908;51.688;7.130;2023-04-15T16:11:12;8.90;99.90
15617;DHT22;7908;51.688;7.130;2023-04-15T16:13:42;8.90;99.90
15617;DHT22;7908;51.688;7.130;2023-04-15T16:16:19;8.80;99.90
15617;DHT22;7908;51.688;7.130;2023-04-15T16:18:50;8.80;99.90
15617;DHT22;7908;51.688;7.130;2023-04-15T16:21:20;8.80;99.90
15617;DHT22;7908;51.688;7.130;2023-04-15T16:23:54;8.80;99.90
15617;DHT22;7908;51.688;7.130;2023-04-15T16:26:27;8.80;99.90
15617;DHT22;7908;51.688;7.130;2023-04-15T16:28:59;8.80;99.90
15617;DHT22;7908;51.688;7.130;2023-04-15T16:31:31;8.80;99.90